sensor_id;sensor_type;location;lat;lon;timestamp;temperature;humidity
75786;DHT22;64402;44.708;37.644;2023-11-21T00:02:22;4.58;86.54
75786;DHT22;64402;44.708;37.644;2023-11-21T00:04:48;4.57;86.73
75786;DHT22;64402;44.708;37.644;2023-11-21T00:07:15;4.61;86.82
75786;DHT22;64402;44.708;37.644;2023-11-21T00:09:41;4.64;86.99
75786;DHT22;64402;44.708;37.644;2023-11-21T00:12:08;4.66;86.47
75786;DHT22;64402;44.708;37.644;2023-11-21T00:14:40;4.66;85.86
75786;DHT22;64402;44.708;37.644;2023-11-21T00:17:06;4.71;86.25
75786;DHT22;64402;44.708;37.644;2023-11-21T00:19:33;4.66;85.64
75786;DHT22;64402;44.708;37.644;2023-11-21T00:22:00;4.65;86.00
75786;DHT22;64402;44.708;37.644;2023-11-21T00:24:26;4.68;86.48
75786;DHT22;64402;44.708;37.644;2023-11-21T00:26:52;4.71;85.74
75786;DHT22;64402;44.708;37.644;2023-11-21T00:29:18;4.73;86.47
75786;DHT22;64402;44.708;37.644;2023-11-21T00:31:45;4.77;86.24
75786;DHT22;64402;44.708;37.644;2023-11-21T00:34:11;4.77;85.27
75786;DHT22;64402;44.708;37.644;2023-11-21T00:36:38;4.77;85.44
75786;DHT22;64402;44.708;37.644;2023-11-21T00:39:04;4.79;85.55
75786;DHT22;64402;44.708;37.644;2023-11-21T00:41:34;4.84;85.08
75786;DHT22;64402;44.708;37.644;2023-11-21T00:44:02;4.83;84.84
75786;DHT22;64402;44.708;37.644;2023-11-21T00:46:28;4.81;84.81
75786;DHT22;64402;44.708;37.644;2023-11-21T00:48:55;4.86;86.18
75786;DHT22;64402;44.708;37.644;2023-11-21T00:51:21;4.93;86.48
75786;DHT22;64402;44.708;37.644;2023-11-21T00:53:48;4.98;86.04
75786;DHT22;64402;44.708;37.644;2023-11-21T00:56:14;5.02;86.25
75786;DHT22;64402;44.708;37.644;2023-11-21T00:58:40;5.03;85.50
75786;DHT22;64402;44.708;37.644;2023-11-21T01:01:12;5.00;85.96
75786;DHT22;64402;44.708;37.644;2023-11-21T01:03:38;4.95;85.22
75786;DHT22;64402;44.708;37.644;2023-11-21T01:06:04;4.96;86.02
75786;DHT22;64402;44.708;37.644;2023-11-21T01:08:33;4.94;86.45
75786;DHT22;64402;44.708;37.644;2023-11-21T01:10:59;5.02;86.90
75786;DHT22;64402;44.708;37.644;2023-11-21T01:13:26;5.01;86.50
75786;DHT22;64402;44.708;37.644;2023-11-21T01:15:53;4.96;86.08
75786;DHT22;64402;44.708;37.644;2023-11-21T01:18:20;4.94;86.20
75786;DHT22;64402;44.708;37.644;2023-11-21T01:20:46;4.95;86.92
75786;DHT22;64402;44.708;37.644;2023-11-21T01:23:13;4.97;86.96
75786;DHT22;64402;44.708;37.644;2023-11-21T01:25:39;4.96;86.56
75786;DHT22;64402;44.708;37.644;2023-11-21T01:28:05;4.96;86.32
75786;DHT22;64402;44.708;37.644;2023-11-21T01:30:32;4.88;86.25
75786;DHT22;64402;44.708;37.644;2023-11-21T01:32:59;4.84;87.02
75786;DHT22;64402;44.708;37.644;2023-11-21T01:35:25;4.83;86.64
75786;DHT22;64402;44.708;37.644;2023-11-21T01:37:51;4.75;86.70
75786;DHT22;64402;44.708;37.644;2023-11-21T01:40:17;4.78;87.21
75786;DHT22;64402;44.708;37.644;2023-11-21T01:42:44;4.78;87.04
75786;DHT22;64402;44.708;37.644;2023-11-21T01:45:12;4.83;85.89
75786;DHT22;64402;44.708;37.644;2023-11-21T01:47:39;4.83;86.54
75786;DHT22;64402;44.708;37.644;2023-11-21T01:50:14;4.89;87.10
75786;DHT22;64402;44.708;37.644;2023-11-21T01:52:41;4.88;87.21
75786;DHT22;64402;44.708;37.644;2023-11-21T01:55:09;4.87;85.98
75786;DHT22;64402;44.708;37.644;2023-11-21T01:57:36;4.83;86.32
75786;DHT22;64402;44.708;37.644;2023-11-21T02:00:04;4.86;86.99
75786;DHT22;64402;44.708;37.644;2023-11-21T02:02:48;4.86;85.84
75786;DHT22;64402;44.708;37.644;2023-11-21T02:05:17;4.83;86.34
75786;DHT22;64402;44.708;37.644;2023-11-21T02:07:47;4.83;86.82
75786;DHT22;64402;44.708;37.644;2023-11-21T02:10:14;4.81;86.73
75786;DHT22;64402;44.708;37.644;2023-11-21T02:12:42;4.80;86.35
75786;DHT22;64402;44.708;37.644;2023-11-21T02:15:12;4.77;87.03
75786;DHT22;64402;44.708;37.644;2023-11-21T02:17:42;4.74;85.48
75786;DHT22;64402;44.708;37.644;2023-11-21T02:20:13;4.71;87.16
75786;DHT22;64402;44.708;37.644;2023-11-21T02:22:51;4.73;86.41
75786;DHT22;64402;44.708;37.644;2023-11-21T02:27:59;4.75;87.28
75786;DHT22;64402;44.708;37.644;2023-11-21T02:30:26;4.83;87.93
75786;DHT22;64402;44.708;37.644;2023-11-21T02:32:57;4.84;85.95
75786;DHT22;64402;44.708;37.644;2023-11-21T02:35:24;4.81;86.62
75786;DHT22;64402;44.708;37.644;2023-11-21T02:37:52;4.82;87.37
75786;DHT22;64402;44.708;37.644;2023-11-21T02:40:19;4.79;86.45
75786;DHT22;64402;44.708;37.644;2023-11-21T02:42:50;4.81;87.43
75786;DHT22;64402;44.708;37.644;2023-11-21T02:45:19;4.80;85.98
75786;DHT22;64402;44.708;37.644;2023-11-21T02:47:47;4.82;86.91
75786;DHT22;64402;44.708;37.644;2023-11-21T02:50:15;4.84;86.52
75786;DHT22;64402;44.708;37.644;2023-11-21T02:52:41;4.87;86.55
75786;DHT22;64402;44.708;37.644;2023-11-21T02:55:07;4.84;86.20
75786;DHT22;64402;44.708;37.644;2023-11-21T02:57:33;4.82;86.78
75786;DHT22;64402;44.708;37.644;2023-11-21T02:59:59;4.82;86.29
75786;DHT22;64402;44.708;37.644;2023-11-21T03:02:27;4.75;85.31
75786;DHT22;64402;44.708;37.644;2023-11-21T03:04:55;4.79;87.12
75786;DHT22;64402;44.708;37.644;2023-11-21T03:07:24;4.80;86.35
75786;DHT22;64402;44.708;37.644;2023-11-21T03:09:54;4.79;85.89
75786;DHT22;64402;44.708;37.644;2023-11-21T03:12:20;4.77;86.56
75786;DHT22;64402;44.708;37.644;2023-11-21T03:14:49;4.75;85.97
75786;DHT22;64402;44.708;37.644;2023-11-21T03:17:18;4.79;85.62
75786;DHT22;64402;44.708;37.644;2023-11-21T03:19:47;4.83;86.58
75786;DHT22;64402;44.708;37.644;2023-11-21T03:22:16;4.84;86.36
75786;DHT22;64402;44.708;37.644;2023-11-21T03:24:43;4.84;86.78
75786;DHT22;64402;44.708;37.644;2023-11-21T03:27:11;4.89;85.63
75786;DHT22;64402;44.708;37.644;2023-11-21T03:29:41;4.81;85.53
75786;DHT22;64402;44.708;37.644;2023-11-21T03:32:11;4.82;86.85
75786;DHT22;64402;44.708;37.644;2023-11-21T03:34:58;4.88;86.70
75786;DHT22;64402;44.708;37.644;2023-11-21T03:37:27;4.87;86.13
75786;DHT22;64402;44.708;37.644;2023-11-21T03:39:57;4.90;86.48
75786;DHT22;64402;44.708;37.644;2023-11-21T03:42:25;4.88;85.01
75786;DHT22;64402;44.708;37.644;2023-11-21T03:44:52;4.90;85.91
75786;DHT22;64402;44.708;37.644;2023-11-21T03:47:21;4.87;86.14
75786;DHT22;64402;44.708;37.644;2023-11-21T03:49:49;4.92;86.74
75786;DHT22;64402;44.708;37.644;2023-11-21T03:52:16;4.93;85.74
75786;DHT22;64402;44.708;37.644;2023-11-21T03:54:45;4.88;84.41
75786;DHT22;64402;44.708;37.644;2023-11-21T03:57:14;4.86;85.79
75786;DHT22;64402;44.708;37.644;2023-11-21T03:59:44;4.92;86.38
75786;DHT22;64402;44.708;37.644;2023-11-21T04:02:12;4.95;85.83
75786;DHT22;64402;44.708;37.644;2023-11-21T04:04:41;5.03;86.32
75786;DHT22;64402;44.708;37.644;2023-11-21T04:07:10;5.06;85.72
75786;DHT22;64402;44.708;37.644;2023-11-21T04:09:37;5.08;85.57
75786;DHT22;64402;44.708;37.644;2023-11-21T04:12:05;5.10;85.82
75786;DHT22;64402;44.708;37.644;2023-11-21T04:14:34;5.11;86.43
75786;DHT22;64402;44.708;37.644;2023-11-21T04:17:01;5.12;85.77
75786;DHT22;64402;44.708;37.644;2023-11-21T04:19:30;5.16;85.48
75786;DHT22;64402;44.708;37.644;2023-11-21T04:21:57;5.18;85.19
75786;DHT22;64402;44.708;37.644;2023-11-21T04:24:23;5.20;84.53
75786;DHT22;64402;44.708;37.644;2023-11-21T04:26:49;5.17;84.74
75786;DHT22;64402;44.708;37.644;2023-11-21T04:29:15;5.16;84.54
75786;DHT22;64402;44.708;37.644;2023-11-21T04:31:41;5.19;85.51
75786;DHT22;64402;44.708;37.644;2023-11-21T04:34:08;5.18;84.75
75786;DHT22;64402;44.708;37.644;2023-11-21T04:36:34;5.18;85.29
75786;DHT22;64402;44.708;37.644;2023-11-21T04:39:01;5.18;84.68
75786;DHT22;64402;44.708;37.644;2023-11-21T04:41:27;5.18;84.36
75786;DHT22;64402;44.708;37.644;2023-11-21T04:43:53;5.22;84.88
75786;DHT22;64402;44.708;37.644;2023-11-21T04:46:19;5.21;84.54
75786;DHT22;64402;44.708;37.644;2023-11-21T04:48:45;5.18;84.14
75786;DHT22;64402;44.708;37.644;2023-11-21T04:51:11;5.17;84.64
75786;DHT22;64402;44.708;37.644;2023-11-21T04:53:38;5.13;84.74
75786;DHT22;64402;44.708;37.644;2023-11-21T04:56:05;5.16;84.80
75786;DHT22;64402;44.708;37.644;2023-11-21T04:58:31;5.15;85.03
75786;DHT22;64402;44.708;37.644;2023-11-21T05:00:58;5.20;85.36
75786;DHT22;64402;44.708;37.644;2023-11-21T05:03:24;5.25;85.23
75786;DHT22;64402;44.708;37.644;2023-11-21T05:05:51;5.24;85.09
75786;DHT22;64402;44.708;37.644;2023-11-21T05:08:17;5.25;85.06
75786;DHT22;64402;44.708;37.644;2023-11-21T05:10:46;5.28;85.29
75786;DHT22;64402;44.708;37.644;2023-11-21T05:13:12;5.21;83.81
75786;DHT22;64402;44.708;37.644;2023-11-21T05:15:38;5.16;84.95
75786;DHT22;64402;44.708;37.644;2023-11-21T05:18:05;5.16;86.14
75786;DHT22;64402;44.708;37.644;2023-11-21T05:20:32;5.21;85.86
75786;DHT22;64402;44.708;37.644;2023-11-21T05:22:58;5.23;84.77
75786;DHT22;64402;44.708;37.644;2023-11-21T05:25:25;5.23;85.21
75786;DHT22;64402;44.708;37.644;2023-11-21T05:27:51;5.19;83.76
75786;DHT22;64402;44.708;37.644;2023-11-21T05:30:17;5.21;85.14
75786;DHT22;64402;44.708;37.644;2023-11-21T05:32:43;5.23;85.04
75786;DHT22;64402;44.708;37.644;2023-11-21T05:35:10;5.26;85.73
75786;DHT22;64402;44.708;37.644;2023-11-21T05:37:41;5.28;85.59
75786;DHT22;64402;44.708;37.644;2023-11-21T05:40:08;5.27;85.11
75786;DHT22;64402;44.708;37.644;2023-11-21T05:42:35;5.28;85.37
75786;DHT22;64402;44.708;37.644;2023-11-21T05:45:02;5.30;84.93
75786;DHT22;64402;44.708;37.644;2023-11-21T05:47:38;5.34;85.50
75786;DHT22;64402;44.708;37.644;2023-11-21T05:50:08;5.38;84.52
75786;DHT22;64402;44.708;37.644;2023-11-21T05:52:36;5.35;84.47
75786;DHT22;64402;44.708;37.644;2023-11-21T05:55:03;5.40;84.48
75786;DHT22;64402;44.708;37.644;2023-11-21T05:57:36;5.45;85.11
75786;DHT22;64402;44.708;37.644;2023-11-21T06:00:08;5.45;85.04
75786;DHT22;64402;44.708;37.644;2023-11-21T06:02:39;5.40;84.93
75786;DHT22;64402;44.708;37.644;2023-11-21T06:05:07;5.41;84.85
75786;DHT22;64402;44.708;37.644;2023-11-21T06:07:33;5.40;85.21
75786;DHT22;64402;44.708;37.644;2023-11-21T06:09:59;5.42;84.07
75786;DHT22;64402;44.708;37.644;2023-11-21T06:12:25;5.45;84.76
75786;DHT22;64402;44.708;37.644;2023-11-21T06:14:51;5.40;83.06
75786;DHT22;64402;44.708;37.644;2023-11-21T06:17:18;5.36;84.30
75786;DHT22;64402;44.708;37.644;2023-11-21T06:19:44;5.41;84.97
75786;DHT22;64402;44.708;37.644;2023-11-21T06:22:11;5.38;84.51
75786;DHT22;64402;44.708;37.644;2023-11-21T06:24:37;5.47;85.28
75786;DHT22;64402;44.708;37.644;2023-11-21T06:27:04;5.49;84.42
75786;DHT22;64402;44.708;37.644;2023-11-21T06:29:31;5.52;84.64
75786;DHT22;64402;44.708;37.644;2023-11-21T06:31:57;5.52;83.58
75786;DHT22;64402;44.708;37.644;2023-11-21T06:34:24;5.48;83.66
75786;DHT22;64402;44.708;37.644;2023-11-21T06:36:50;5.50;84.50
75786;DHT22;64402;44.708;37.644;2023-11-21T06:39:17;5.49;83.84
75786;DHT22;64402;44.708;37.644;2023-11-21T06:41:43;5.47;84.34
75786;DHT22;64402;44.708;37.644;2023-11-21T06:44:09;5.54;84.88
75786;DHT22;64402;44.708;37.644;2023-11-21T06:46:35;5.56;84.42
75786;DHT22;64402;44.708;37.644;2023-11-21T06:49:02;5.62;84.65
75786;DHT22;64402;44.708;37.644;2023-11-21T06:51:28;5.65;83.47
75786;DHT22;64402;44.708;37.644;2023-11-21T06:53:54;5.65;83.89
75786;DHT22;64402;44.708;37.644;2023-11-21T06:56:20;5.67;83.87
75786;DHT22;64402;44.708;37.644;2023-11-21T06:58:47;5.67;83.58
75786;DHT22;64402;44.708;37.644;2023-11-21T07:01:13;5.74;84.33
75786;DHT22;64402;44.708;37.644;2023-11-21T07:03:39;5.80;84.42
75786;DHT22;64402;44.708;37.644;2023-11-21T07:06:07;5.80;82.96
75786;DHT22;64402;44.708;37.644;2023-11-21T07:08:33;5.76;82.28
75786;DHT22;64402;44.708;37.644;2023-11-21T07:10:59;5.76;84.16
75786;DHT22;64402;44.708;37.644;2023-11-21T07:13:25;5.81;83.26
75786;DHT22;64402;44.708;37.644;2023-11-21T07:15:52;5.81;83.44
75786;DHT22;64402;44.708;37.644;2023-11-21T07:18:18;5.79;83.48
75786;DHT22;64402;44.708;37.644;2023-11-21T07:20:44;5.80;84.51
75786;DHT22;64402;44.708;37.644;2023-11-21T07:23:10;5.90;84.77
75786;DHT22;64402;44.708;37.644;2023-11-21T07:25:36;5.98;83.92
75786;DHT22;64402;44.708;37.644;2023-11-21T07:28:02;6.04;83.75
75786;DHT22;64402;44.708;37.644;2023-11-21T07:30:28;6.01;83.45
75786;DHT22;64402;44.708;37.644;2023-11-21T07:32:55;5.93;82.55
75786;DHT22;64402;44.708;37.644;2023-11-21T07:35:21;5.77;82.84
75786;DHT22;64402;44.708;37.644;2023-11-21T07:37:47;5.70;82.75
75786;DHT22;64402;44.708;37.644;2023-11-21T07:40:14;5.65;82.96
75786;DHT22;64402;44.708;37.644;2023-11-21T07:42:41;5.70;83.70
75786;DHT22;64402;44.708;37.644;2023-11-21T07:45:08;5.71;82.47
75786;DHT22;64402;44.708;37.644;2023-11-21T07:47:35;5.67;82.46
75786;DHT22;64402;44.708;37.644;2023-11-21T07:50:05;5.67;82.11
75786;DHT22;64402;44.708;37.644;2023-11-21T07:52:33;5.71;82.33
75786;DHT22;64402;44.708;37.644;2023-11-21T07:54:59;5.77;81.97
75786;DHT22;64402;44.708;37.644;2023-11-21T07:57:25;5.76;82.20
75786;DHT22;64402;44.708;37.644;2023-11-21T07:59:52;5.78;82.55
75786;DHT22;64402;44.708;37.644;2023-11-21T08:02:19;5.84;82.53
75786;DHT22;64402;44.708;37.644;2023-11-21T08:04:45;5.87;81.75
75786;DHT22;64402;44.708;37.644;2023-11-21T08:07:16;5.95;81.46
75786;DHT22;64402;44.708;37.644;2023-11-21T08:09:43;6.07;81.10
75786;DHT22;64402;44.708;37.644;2023-11-21T08:12:10;6.16;80.61
75786;DHT22;64402;44.708;37.644;2023-11-21T08:14:36;6.36;80.75
75786;DHT22;64402;44.708;37.644;2023-11-21T08:17:04;6.56;77.24
75786;DHT22;64402;44.708;37.644;2023-11-21T08:19:30;6.61;78.23
75786;DHT22;64402;44.708;37.644;2023-11-21T08:21:57;6.72;77.82
75786;DHT22;64402;44.708;37.644;2023-11-21T08:24:25;6.86;77.41
75786;DHT22;64402;44.708;37.644;2023-11-21T08:26:51;7.01;76.89
75786;DHT22;64402;44.708;37.644;2023-11-21T08:29:18;7.23;77.11
75786;DHT22;64402;44.708;37.644;2023-11-21T08:31:44;7.24;76.21
75786;DHT22;64402;44.708;37.644;2023-11-21T08:34:13;7.10;76.41
75786;DHT22;64402;44.708;37.644;2023-11-21T08:36:43;6.93;76.92
75786;DHT22;64402;44.708;37.644;2023-11-21T08:39:09;6.94;77.31
75786;DHT22;64402;44.708;37.644;2023-11-21T08:41:36;7.05;77.51
75786;DHT22;64402;44.708;37.644;2023-11-21T08:44:02;7.26;77.17
75786;DHT22;64402;44.708;37.644;2023-11-21T08:46:33;7.37;75.85
75786;DHT22;64402;44.708;37.644;2023-11-21T08:49:02;7.39;74.87
75786;DHT22;64402;44.708;37.644;2023-11-21T08:51:29;7.42;74.86
75786;DHT22;64402;44.708;37.644;2023-11-21T08:53:55;7.31;75.83
75786;DHT22;64402;44.708;37.644;2023-11-21T08:56:25;7.28;76.33
75786;DHT22;64402;44.708;37.644;2023-11-21T08:58:51;7.23;75.77
75786;DHT22;64402;44.708;37.644;2023-11-21T09:01:17;7.19;76.46
75786;DHT22;64402;44.708;37.644;2023-11-21T09:03:43;7.25;76.27
75786;DHT22;64402;44.708;37.644;2023-11-21T09:06:09;7.22;76.22
75786;DHT22;64402;44.708;37.644;2023-11-21T09:08:35;7.09;75.76
75786;DHT22;64402;44.708;37.644;2023-11-21T09:11:02;6.96;76.86
75786;DHT22;64402;44.708;37.644;2023-11-21T09:13:28;6.94;77.36
75786;DHT22;64402;44.708;37.644;2023-11-21T09:15:55;6.97;76.58
75786;DHT22;64402;44.708;37.644;2023-11-21T09:18:21;6.97;76.82
75786;DHT22;64402;44.708;37.644;2023-11-21T09:20:47;7.09;76.68
75786;DHT22;64402;44.708;37.644;2023-11-21T09:23:14;7.20;76.28
75786;DHT22;64402;44.708;37.644;2023-11-21T09:25:40;7.49;76.54
75786;DHT22;64402;44.708;37.644;2023-11-21T09:28:06;7.77;74.54
75786;DHT22;64402;44.708;37.644;2023-11-21T09:30:35;8.11;73.98
75786;DHT22;64402;44.708;37.644;2023-11-21T09:33:02;8.17;72.54
75786;DHT22;64402;44.708;37.644;2023-11-21T09:35:28;8.23;72.88
75786;DHT22;64402;44.708;37.644;2023-11-21T09:37:54;8.33;72.58
75786;DHT22;64402;44.708;37.644;2023-11-21T09:40:22;8.47;72.13
75786;DHT22;64402;44.708;37.644;2023-11-21T09:42:54;8.76;71.74
75786;DHT22;64402;44.708;37.644;2023-11-21T09:45:28;8.90;70.18
75786;DHT22;64402;44.708;37.644;2023-11-21T09:47:57;8.87;70.16
75786;DHT22;64402;44.708;37.644;2023-11-21T09:50:24;9.69;68.32
75786;DHT22;64402;44.708;37.644;2023-11-21T09:55:37;9.96;66.30
75786;DHT22;64402;44.708;37.644;2023-11-21T09:58:06;10.48;66.01
75786;DHT22;64402;44.708;37.644;2023-11-21T10:00:34;11.71;62.23
75786;DHT22;64402;44.708;37.644;2023-11-21T10:03:00;14.42;53.73
75786;DHT22;64402;44.708;37.644;2023-11-21T10:05:28;17.20;46.73
75786;DHT22;64402;44.708;37.644;2023-11-21T10:07:56;19.46;40.87
75786;DHT22;64402;44.708;37.644;2023-11-21T10:10:24;20.40;36.89
75786;DHT22;64402;44.708;37.644;2023-11-21T10:12:54;20.90;38.33
75786;DHT22;64402;44.708;37.644;2023-11-21T10:15:22;21.38;36.44
75786;DHT22;64402;44.708;37.644;2023-11-21T10:17:52;22.03;34.18
75786;DHT22;64402;44.708;37.644;2023-11-21T10:20:23;20.80;36.64
75786;DHT22;64402;44.708;37.644;2023-11-21T10:22:50;21.55;35.53
75786;DHT22;64402;44.708;37.644;2023-11-21T10:25:16;21.98;33.86
75786;DHT22;64402;44.708;37.644;2023-11-21T10:27:48;21.05;35.47
75786;DHT22;64402;44.708;37.644;2023-11-21T10:30:17;20.49;35.90
75786;DHT22;64402;44.708;37.644;2023-11-21T10:32:44;20.66;35.98
75786;DHT22;64402;44.708;37.644;2023-11-21T10:35:10;19.92;36.15
75786;DHT22;64402;44.708;37.644;2023-11-21T10:37:39;19.15;38.88
75786;DHT22;64402;44.708;37.644;2023-11-21T10:40:07;18.72;39.84
75786;DHT22;64402;44.708;37.644;2023-11-21T10:42:33;18.06;41.33
75786;DHT22;64402;44.708;37.644;2023-11-21T10:44:59;17.25;42.01
75786;DHT22;64402;44.708;37.644;2023-11-21T10:47:26;16.17;45.23
75786;DHT22;64402;44.708;37.644;2023-11-21T10:49:52;15.36;47.15
75786;DHT22;64402;44.708;37.644;2023-11-21T10:52:19;17.73;41.84
75786;DHT22;64402;44.708;37.644;2023-11-21T10:54:46;20.24;35.51
75786;DHT22;64402;44.708;37.644;2023-11-21T10:57:17;22.14;31.51
75786;DHT22;64402;44.708;37.644;2023-11-21T10:59:46;23.35;29.19
75786;DHT22;64402;44.708;37.644;2023-11-21T11:02:23;24.59;26.46
75786;DHT22;64402;44.708;37.644;2023-11-21T11:04:52;24.98;25.83
75786;DHT22;64402;44.708;37.644;2023-11-21T11:07:21;24.33;26.19
75786;DHT22;64402;44.708;37.644;2023-11-21T11:09:53;23.50;27.70
75786;DHT22;64402;44.708;37.644;2023-11-21T11:12:21;22.47;29.31
75786;DHT22;64402;44.708;37.644;2023-11-21T11:14:48;21.35;30.89
75786;DHT22;64402;44.708;37.644;2023-11-21T11:17:14;19.76;34.99
75786;DHT22;64402;44.708;37.644;2023-11-21T11:19:42;18.68;36.34
75786;DHT22;64402;44.708;37.644;2023-11-21T11:27:44;21.62;29.28
75786;DHT22;64402;44.708;37.644;2023-11-21T11:33:35;22.48;28.17
75786;DHT22;64402;44.708;37.644;2023-11-21T11:38:54;24.01;26.42
75786;DHT22;64402;44.708;37.644;2023-11-21T11:41:33;22.71;24.90
75786;DHT22;64402;44.708;37.644;2023-11-21T11:44:01;22.09;26.33
75786;DHT22;64402;44.708;37.644;2023-11-21T11:46:44;22.44;25.86
75786;DHT22;64402;44.708;37.644;2023-11-21T11:49:29;22.61;24.63
75786;DHT22;64402;44.708;37.644;2023-11-21T11:52:33;22.80;25.34
75786;DHT22;64402;44.708;37.644;2023-11-21T11:55:00;23.24;23.27
75786;DHT22;64402;44.708;37.644;2023-11-21T11:57:30;21.80;25.77
75786;DHT22;64402;44.708;37.644;2023-11-21T12:00:12;21.13;26.71
75786;DHT22;64402;44.708;37.644;2023-11-21T12:02:44;21.00;27.63
75786;DHT22;64402;44.708;37.644;2023-11-21T12:05:12;20.59;27.34
75786;DHT22;64402;44.708;37.644;2023-11-21T12:10:12;18.84;30.64
75786;DHT22;64402;44.708;37.644;2023-11-21T12:13:00;17.01;35.62
75786;DHT22;64402;44.708;37.644;2023-11-21T12:15:27;18.04;35.85
75786;DHT22;64402;44.708;37.644;2023-11-21T12:17:57;20.10;32.73
75786;DHT22;64402;44.708;37.644;2023-11-21T12:20:27;21.79;29.29
75786;DHT22;64402;44.708;37.644;2023-11-21T12:22:58;20.64;30.47
75786;DHT22;64402;44.708;37.644;2023-11-21T12:25:29;18.97;34.34
75786;DHT22;64402;44.708;37.644;2023-11-21T12:27:58;18.13;34.99
75786;DHT22;64402;44.708;37.644;2023-11-21T12:30:30;15.61;39.20
75786;DHT22;64402;44.708;37.644;2023-11-21T12:32:58;14.12;43.76
75786;DHT22;64402;44.708;37.644;2023-11-21T12:35:27;13.45;45.22
75786;DHT22;64402;44.708;37.644;2023-11-21T12:37:55;12.85;47.39
75786;DHT22;64402;44.708;37.644;2023-11-21T12:40:23;12.06;49.11
75786;DHT22;64402;44.708;37.644;2023-11-21T12:42:54;11.56;52.59
75786;DHT22;64402;44.708;37.644;2023-11-21T12:45:27;11.40;52.91
75786;DHT22;64402;44.708;37.644;2023-11-21T12:48:01;11.18;54.07
75786;DHT22;64402;44.708;37.644;2023-11-21T12:50:31;10.92;54.62
75786;DHT22;64402;44.708;37.644;2023-11-21T12:53:07;10.71;55.05
75786;DHT22;64402;44.708;37.644;2023-11-21T12:55:38;10.62;56.06
75786;DHT22;64402;44.708;37.644;2023-11-21T12:58:06;10.42;56.64
75786;DHT22;64402;44.708;37.644;2023-11-21T13:00:53;10.35;56.56
75786;DHT22;64402;44.708;37.644;2023-11-21T13:03:19;10.26;58.58
75786;DHT22;64402;44.708;37.644;2023-11-21T13:05:52;10.14;57.71
75786;DHT22;64402;44.708;37.644;2023-11-21T13:08:21;9.91;58.16
75786;DHT22;64402;44.708;37.644;2023-11-21T13:10:55;9.81;58.99
75786;DHT22;64402;44.708;37.644;2023-11-21T13:13:22;9.70;58.85
75786;DHT22;64402;44.708;37.644;2023-11-21T13:15:54;9.61;59.20
75786;DHT22;64402;44.708;37.644;2023-11-21T13:18:27;9.54;59.54
75786;DHT22;64402;44.708;37.644;2023-11-21T13:20:54;9.52;60.42
75786;DHT22;64402;44.708;37.644;2023-11-21T13:23:21;9.48;60.04
75786;DHT22;64402;44.708;37.644;2023-11-21T13:25:48;9.37;61.01
75786;DHT22;64402;44.708;37.644;2023-11-21T13:28:15;9.38;60.74
75786;DHT22;64402;44.708;37.644;2023-11-21T13:30:44;9.31;61.45
75786;DHT22;64402;44.708;37.644;2023-11-21T13:33:10;9.19;61.04
75786;DHT22;64402;44.708;37.644;2023-11-21T13:35:44;9.11;61.18
75786;DHT22;64402;44.708;37.644;2023-11-21T13:38:15;9.07;62.26
75786;DHT22;64402;44.708;37.644;2023-11-21T13:40:48;8.98;60.96
75786;DHT22;64402;44.708;37.644;2023-11-21T13:43:17;8.74;60.31
75786;DHT22;64402;44.708;37.644;2023-11-21T13:45:49;8.65;62.58
75786;DHT22;64402;44.708;37.644;2023-11-21T13:48:24;8.71;63.92
75786;DHT22;64402;44.708;37.644;2023-11-21T13:51:14;8.76;64.22
75786;DHT22;64402;44.708;37.644;2023-11-21T13:53:48;8.71;61.94
75786;DHT22;64402;44.708;37.644;2023-11-21T13:56:16;8.71;64.62
75786;DHT22;64402;44.708;37.644;2023-11-21T13:58:47;8.73;63.19
75786;DHT22;64402;44.708;37.644;2023-11-21T14:01:21;8.68;64.34
75786;DHT22;64402;44.708;37.644;2023-11-21T14:04:07;8.66;62.95
75786;DHT22;64402;44.708;37.644;2023-11-21T14:06:39;8.60;64.63
75786;DHT22;64402;44.708;37.644;2023-11-21T14:09:23;8.55;63.27
75786;DHT22;64402;44.708;37.644;2023-11-21T14:11:59;8.52;64.81
75786;DHT22;64402;44.708;37.644;2023-11-21T14:14:27;8.53;64.63
75786;DHT22;64402;44.708;37.644;2023-11-21T14:16:54;8.53;64.61
75786;DHT22;64402;44.708;37.644;2023-11-21T14:19:22;8.48;64.74
75786;DHT22;64402;44.708;37.644;2023-11-21T14:21:53;8.45;64.60
75786;DHT22;64402;44.708;37.644;2023-11-21T14:24:19;8.37;64.72
75786;DHT22;64402;44.708;37.644;2023-11-21T14:26:46;8.32;64.89
75786;DHT22;64402;44.708;37.644;2023-11-21T14:29:15;8.29;65.40
75786;DHT22;64402;44.708;37.644;2023-11-21T14:31:46;8.16;65.25
75786;DHT22;64402;44.708;37.644;2023-11-21T14:34:12;8.17;66.14
75786;DHT22;64402;44.708;37.644;2023-11-21T14:36:41;8.17;65.09
75786;DHT22;64402;44.708;37.644;2023-11-21T14:39:09;8.16;65.77
75786;DHT22;64402;44.708;37.644;2023-11-21T14:41:46;8.16;66.15
75786;DHT22;64402;44.708;37.644;2023-11-21T14:44:12;8.14;66.04
75786;DHT22;64402;44.708;37.644;2023-11-21T14:46:40;8.11;65.56
75786;DHT22;64402;44.708;37.644;2023-11-21T14:49:10;8.11;65.94
75786;DHT22;64402;44.708;37.644;2023-11-21T14:51:47;8.06;67.45
75786;DHT22;64402;44.708;37.644;2023-11-21T14:54:25;8.03;67.38
75786;DHT22;64402;44.708;37.644;2023-11-21T14:57:06;7.99;68.33
75786;DHT22;64402;44.708;37.644;2023-11-21T14:59:44;7.99;68.98
75786;DHT22;64402;44.708;37.644;2023-11-21T15:02:13;8.01;67.62
75786;DHT22;64402;44.708;37.644;2023-11-21T15:04:47;7.96;68.07
75786;DHT22;64402;44.708;37.644;2023-11-21T15:07:14;7.89;68.57
75786;DHT22;64402;44.708;37.644;2023-11-21T15:09:40;7.85;69.29
75786;DHT22;64402;44.708;37.644;2023-11-21T15:12:08;7.79;68.54
75786;DHT22;64402;44.708;37.644;2023-11-21T15:14:45;7.77;69.29
75786;DHT22;64402;44.708;37.644;2023-11-21T15:17:12;7.73;71.57
75786;DHT22;64402;44.708;37.644;2023-11-21T15:19:43;7.71;70.65
75786;DHT22;64402;44.708;37.644;2023-11-21T15:22:11;7.70;67.20
75786;DHT22;64402;44.708;37.644;2023-11-21T15:24:41;7.67;67.06
75786;DHT22;64402;44.708;37.644;2023-11-21T15:27:09;7.63;68.29
75786;DHT22;64402;44.708;37.644;2023-11-21T15:29:35;7.64;71.48
75786;DHT22;64402;44.708;37.644;2023-11-21T15:32:01;7.65;69.02
75786;DHT22;64402;44.708;37.644;2023-11-21T15:34:27;7.68;69.70
75786;DHT22;64402;44.708;37.644;2023-11-21T15:36:55;7.69;67.90
75786;DHT22;64402;44.708;37.644;2023-11-21T15:39:21;7.70;65.56
75786;DHT22;64402;44.708;37.644;2023-11-21T15:41:51;7.62;67.27
75786;DHT22;64402;44.708;37.644;2023-11-21T15:44:17;7.55;67.40
75786;DHT22;64402;44.708;37.644;2023-11-21T15:46:43;7.50;68.29
75786;DHT22;64402;44.708;37.644;2023-11-21T15:49:10;7.48;69.16
75786;DHT22;64402;44.708;37.644;2023-11-21T15:51:43;7.41;71.38
75786;DHT22;64402;44.708;37.644;2023-11-21T15:54:13;7.31;71.28
75786;DHT22;64402;44.708;37.644;2023-11-21T15:56:39;7.27;70.62